• Join FlightAware (Why Join?)
  • Login
  • US Flag 
03:15PM EDT


 

Airport Tracker/Info


-or-


 

Live Flight TrackerFlight Track Log ✈ SKW5516 ✈ 05-Jun-2013 ✈ KFAT - KLAX

Flight Track Log - Related Links

Times and Time Zones

All times are in EDT time to prevent confusion due to time zone crossing. See the SKW5516 flight status page for this flight to view local times or setup timezone preferences in your user account.

Time Position Orientation Groundspeed Altitude Reporting Facility
EDT Latitude Longitude Course Direction KTS MPH feet Rate Location/Type
05:41PM 36.6001 -119.6342 159° South  Level Estimated
05:42PM 36.5414 -119.6061 159° South  Level Estimated
05:43PM 36.4826 -119.5781 159° South  Level Estimated
05:44PM 36.4238 -119.5501 159° South  Level Estimated
05:45PM 36.3650 -119.5221 159° South  Level Estimated
05:46PM 36.3062 -119.4942 159° South  Level Estimated
05:47PM 36.2474 -119.4664 159° South  Level Estimated
05:48PM 36.1886 -119.4386 159° South  Level Estimated
05:49PM 36.1298 -119.4108 159° South  Level Estimated
05:50PM 36.0709 -119.3830 159° South  Level Estimated
05:51PM 36.0121 -119.3553 159° South  Level Estimated
05:52PM 35.9533 -119.3277 159° South  Level Estimated
05:53PM 35.8944 -119.3001 159° South  Level Estimated
05:54PM 35.8356 -119.2725 159° South  Level Estimated
05:55PM 35.7767 -119.2450 159° South  Level Estimated
05:56PM 35.7178 -119.2175 159° South  Level Estimated
05:57PM 35.6590 -119.1900 159° South  Level Estimated
05:58PM 35.6001 -119.1626 159° South  Level Estimated
05:59PM 35.5412 -119.1352 159° South  Level Estimated
06:00PM 35.4823 -119.1079 159° South  Level Estimated
06:01PM 35.4234 -119.0806 159° South  Level Estimated
06:02PM 35.3645 -119.0534 159° South  Level Estimated
06:03PM 35.3056 -119.0262 159° South  Level Estimated
06:04PM 35.2467 -118.9990 159° South  Level Estimated
06:05PM 35.1878 -118.9719 159° South  Level Estimated
06:06PM 35.1288 -118.9448 159° South  Level Estimated
06:07PM 35.0699 -118.9177 159° South  Level Estimated
06:08PM 35.0110 -118.8907 159° South  Level Estimated
06:09PM 34.9520 -118.8637 159° South  Level Estimated
06:10PM 34.8931 -118.8368 159° South  Level Estimated
06:11PM 34.8341 -118.8099 159° South  Level Estimated
06:12PM 34.7752 -118.7831 159° South  Level Estimated
06:13PM 34.7162 -118.7562 160° South  Level Estimated
06:14PM 34.6572 -118.7294 160° South  Level Estimated
06:15PM 34.5983 -118.7027 160° South  Level Estimated
06:16PM 34.5393 -118.6760 160° South  Level Estimated
06:17PM 34.4803 -118.6493 160° South  Level Estimated
06:18PM 34.4213 -118.6227 160° South  Level Estimated
06:19PM 34.3623 -118.5961 160° South  Level Estimated
06:20PM 34.3033 -118.5696 160° South  Level Estimated
06:21PM 34.2443 -118.5430 160° South  Level Estimated
06:22PM 34.1852 -118.5166 160° South  Level Estimated
06:23PM 34.1262 -118.4901 160° South  Level Estimated
06:24PM 34.0672 -118.4637 160° South  Level Estimated
06:25PM 34.0081 -118.4373 160° South  Level Estimated
06:26PM 33.9491 -118.4110 160° South  Level Estimated
06:27PM 33.9425 -118.4081 160° South  Level Estimated
06:28PM 33.9425 -118.4081 164° South  Level Estimated
06:29PM 33.9425 -118.4081 164° South  Level Estimated